createdAt,value
2022-11-06T00:00:09.424Z,101416.41
2022-11-06T00:02:59.924Z,101418.09
2022-11-06T00:05:48.509Z,101422.61
2022-11-06T00:08:27.816Z,101425.41
2022-11-06T00:10:57.249Z,101428.23
2022-11-06T00:13:26.178Z,101426.77
2022-11-06T00:15:55.042Z,101425.20
2022-11-06T00:18:26.968Z,101425.56
2022-11-06T00:20:55.689Z,101426.16
2022-11-06T00:23:24.894Z,101425.86
2022-11-06T00:25:56.892Z,101427.20
2022-11-06T00:28:25.695Z,101427.73
2022-11-06T00:31:05.921Z,101428.77
2022-11-06T00:33:35.610Z,101424.59
2022-11-06T00:36:07.462Z,101424.06
2022-11-06T00:38:36.789Z,101420.87
2022-11-06T00:41:08.295Z,101418.80
2022-11-06T00:43:37.119Z,101417.23
2022-11-06T00:46:14.329Z,101413.93
2022-11-06T00:48:43.417Z,101418.41
2022-11-06T00:51:18.098Z,101419.92
2022-11-06T00:53:47.312Z,101423.17
2022-11-06T00:56:19.637Z,101421.95
2022-11-06T00:58:48.910Z,101416.91
2022-11-06T01:01:27.859Z,101418.58
2022-11-06T01:04:12.077Z,101421.39
2022-11-06T01:06:49.881Z,101425.91
2022-11-06T01:09:22.783Z,101431.02
2022-11-06T01:12:13.404Z,101429.17
2022-11-06T01:14:44.098Z,101429.32
2022-11-06T01:17:13.520Z,101427.91
2022-11-06T01:19:42.391Z,101431.23
2022-11-06T01:22:11.171Z,101431.52
2022-11-06T01:24:40.364Z,101432.05
2022-11-06T01:27:25.992Z,101428.93
2022-11-06T01:29:57.199Z,101429.20
2022-11-06T01:32:25.885Z,101426.78
2022-11-06T01:34:54.785Z,101425.89
2022-11-06T01:37:23.677Z,101427.85
2022-11-06T01:39:52.571Z,101418.41
2022-11-06T01:42:22.650Z,101423.11
2022-11-06T01:45:25.173Z,101418.19
2022-11-06T01:47:54.064Z,101416.29
2022-11-06T01:50:22.953Z,101411.98
2022-11-06T01:52:52.450Z,101414.40
2022-11-06T01:55:35.425Z,101418.94
2022-11-06T01:58:07.749Z,101420.19
2022-11-06T02:00:36.639Z,101423.31
2022-11-06T02:03:05.708Z,101428.77
2022-11-06T02:05:34.734Z,101429.84
2022-11-06T02:08:04.338Z,101434.17
2022-11-06T02:10:34.456Z,101430.73
2022-11-06T02:13:24.552Z,101433.64
2022-11-06T02:16:23.910Z,101434.24
2022-11-06T02:19:55.408Z,101435.40
2022-11-06T02:22:48.467Z,101434.67
2022-11-06T02:25:58.937Z,101428.92
2022-11-06T02:28:51.169Z,101428.45
2022-11-06T02:31:26.943Z,101432.75
2022-11-06T02:34:05.302Z,101430.45
2022-11-06T02:36:41.113Z,101433.31
2022-11-06T02:39:14.586Z,101438.09
2022-11-06T02:41:47.649Z,101442.15
2022-11-06T02:44:20.880Z,101448.33
2022-11-06T02:47:06.259Z,101450.94
2022-11-06T02:50:16.005Z,101451.33
2022-11-06T02:53:01.183Z,101456.54
2022-11-06T02:55:50.080Z,101461.98
2022-11-06T02:58:49.412Z,101458.41
2022-11-06T03:01:31.404Z,101457.91
2022-11-06T03:04:11.489Z,101458.27
2022-11-06T03:06:49.554Z,101457.27
2022-11-06T03:09:25.919Z,101463.19
2022-11-06T03:12:12.574Z,101459.66
2022-11-06T03:14:52.017Z,101463.12
2022-11-06T03:17:57.163Z,101466.67
2022-11-06T03:20:57.593Z,101470.05
2022-11-06T03:23:42.395Z,101471.05
2022-11-06T03:26:25.688Z,101475.41
2022-11-06T03:29:12.413Z,101475.31
2022-11-06T03:31:53.982Z,101481.20
2022-11-06T03:34:40.947Z,101483.75
2022-11-06T03:37:20.339Z,101480.73
2022-11-06T03:39:54.749Z,101479.19
2022-11-06T03:42:28.402Z,101478.46
2022-11-06T03:45:04.001Z,101480.28
2022-11-06T03:47:44.168Z,101476.17
2022-11-06T03:50:39.266Z,101478.21
2022-11-06T03:53:35.478Z,101474.49
2022-11-06T03:56:15.067Z,101475.16
2022-11-06T03:58:48.901Z,101466.93
2022-11-06T04:01:25.517Z,101464.77
2022-11-06T04:04:06.777Z,101463.36
2022-11-06T04:06:54.849Z,101467.20
2022-11-06T04:09:47.814Z,101463.08
2022-11-06T04:12:41.790Z,101467.11
2022-11-06T04:15:16.275Z,101467.73
2022-11-06T04:17:44.987Z,101464.88
2022-11-06T04:20:39.590Z,101463.75
2022-11-06T04:23:41.344Z,101460.78
2022-11-06T04:26:37.587Z,101459.73
2022-11-06T04:29:29.817Z,101465.55
2022-11-06T04:32:22.771Z,101465.56
2022-11-06T04:35:10.622Z,101463.80
2022-11-06T04:37:58.241Z,101467.09
2022-11-06T04:40:38.840Z,101468.13
2022-11-06T04:43:52.146Z,101469.92
2022-11-06T04:46:33.020Z,101470.99
2022-11-06T04:49:06.149Z,101473.64
2022-11-06T04:51:38.165Z,101476.27
2022-11-06T04:54:10.881Z,101472.41
2022-11-06T04:56:45.573Z,101471.25
2022-11-06T04:59:17.951Z,101475.79
2022-11-06T05:01:47.573Z,101478.29
2022-11-06T05:04:16.663Z,101478.24
2022-11-06T05:06:45.495Z,101476.12
2022-11-06T05:09:14.337Z,101473.92
2022-11-06T05:11:43.361Z,101475.92
2022-11-06T05:14:12.115Z,101478.95
2022-11-06T05:16:41.123Z,101481.45
2022-11-06T05:19:09.913Z,101478.56
2022-11-06T05:21:57.020Z,101483.66
2022-11-06T05:24:25.930Z,101487.30
2022-11-06T05:26:59.126Z,101490.80
2022-11-06T05:29:28.810Z,101491.28
2022-11-06T05:31:57.512Z,101491.30
2022-11-06T05:34:26.291Z,101493.97
2022-11-06T05:36:55.080Z,101502.11
2022-11-06T05:39:24.188Z,101504.19
2022-11-06T05:41:52.884Z,101508.75
2022-11-06T05:44:21.638Z,101516.27
2022-11-06T05:46:50.513Z,101520.40
2022-11-06T05:49:19.648Z,101523.78
2022-11-06T05:51:48.689Z,101523.98
2022-11-06T05:54:17.284Z,101525.52
2022-11-06T05:56:45.967Z,101524.32
2022-11-06T05:59:15.114Z,101526.89
2022-11-06T06:01:44.119Z,101525.22
2022-11-06T06:04:13.202Z,101524.59
2022-11-06T06:06:42.567Z,101527.55
2022-11-06T06:09:11.148Z,101534.52
2022-11-06T06:11:39.723Z,101538.36
2022-11-06T06:14:08.389Z,101540.91
2022-11-06T06:16:37.087Z,101542.69
2022-11-06T06:19:05.902Z,101540.91
2022-11-06T06:21:34.619Z,101539.54
2022-11-06T06:24:05.441Z,101537.27
2022-11-06T06:26:34.046Z,101535.91
2022-11-06T06:29:03.438Z,101535.40
2022-11-06T06:31:32.342Z,101540.84
2022-11-06T06:34:01.083Z,101538.52
2022-11-06T06:36:29.729Z,101542.39
2022-11-06T06:38:58.384Z,101540.45
2022-11-06T06:41:27.075Z,101545.73
2022-11-06T06:43:55.779Z,101547.79
2022-11-06T06:46:24.444Z,101542.58
2022-11-06T06:48:53.138Z,101543.81
2022-11-06T06:51:24.165Z,101548.00
2022-11-06T06:53:53.095Z,101549.17
2022-11-06T06:56:22.016Z,101553.42
2022-11-06T06:58:55.111Z,101554.48
2022-11-06T07:01:23.887Z,101549.77
2022-11-06T07:03:53.072Z,101552.80
2022-11-06T07:06:21.847Z,101549.92
2022-11-06T07:08:54.832Z,101547.55
2022-11-06T07:11:23.546Z,101548.71
2022-11-06T07:13:52.615Z,101544.63
2022-11-06T07:16:22.066Z,101554.30
2022-11-06T07:18:50.672Z,101557.74
2022-11-06T07:21:19.385Z,101552.02
2022-11-06T07:23:48.496Z,101552.29
2022-11-06T07:26:17.507Z,101553.55
2022-11-06T07:28:46.142Z,101553.92
2022-11-06T07:31:14.998Z,101551.10
2022-11-06T07:33:43.713Z,101549.23
2022-11-06T07:36:14.115Z,101549.85
2022-11-06T07:38:43.993Z,101549.27
2022-11-06T07:41:15.478Z,101553.38
2022-11-06T07:43:44.500Z,101556.88
2022-11-06T07:46:13.905Z,101554.38
2022-11-06T07:48:42.543Z,101557.02
2022-11-06T07:51:11.885Z,101558.14
2022-11-06T07:53:41.445Z,101559.33
2022-11-06T07:56:10.076Z,101558.95
2022-11-06T07:58:39.248Z,101556.24
2022-11-06T08:01:18.844Z,101555.79
2022-11-06T08:03:47.824Z,101558.53
2022-11-06T08:06:16.535Z,101559.71
2022-11-06T08:08:45.148Z,101560.55
2022-11-06T08:11:14.349Z,101557.45
2022-11-06T08:13:44.232Z,101556.58
2022-11-06T08:16:15.022Z,101555.91
2022-11-06T08:18:43.914Z,101552.58
2022-11-06T08:21:12.581Z,101551.55
2022-11-06T08:23:41.453Z,101554.12
2022-11-06T08:26:11.462Z,101554.23
2022-11-06T08:28:40.098Z,101554.49
2022-11-06T08:31:09.468Z,101556.19
2022-11-06T08:33:39.261Z,101557.20
2022-11-06T08:36:09.386Z,101560.30
2022-11-06T08:38:38.330Z,101559.90
2022-11-06T08:41:12.651Z,101562.16
2022-11-06T08:43:41.608Z,101566.48
2022-11-06T08:46:11.699Z,101560.46
2022-11-06T08:48:40.340Z,101563.70
2022-11-06T08:51:09.045Z,101565.60
2022-11-06T08:53:37.741Z,101566.42
2022-11-06T08:56:07.112Z,101564.16
2022-11-06T08:58:35.740Z,101564.47
2022-11-06T09:01:04.474Z,101562.57
2022-11-06T09:03:33.173Z,101564.25
2022-11-06T09:06:01.885Z,101568.15
2022-11-06T09:08:30.491Z,101566.81
2022-11-06T09:10:59.369Z,101573.37
2022-11-06T09:13:28.026Z,101571.73
2022-11-06T09:15:56.645Z,101569.52
2022-11-06T09:18:25.209Z,101566.10
2022-11-06T09:20:58.513Z,101559.84
2022-11-06T09:23:27.177Z,101560.84
2022-11-06T09:25:58.405Z,101560.05
2022-11-06T09:28:27.047Z,101559.11
2022-11-06T09:30:55.610Z,101559.71
2022-11-06T09:33:24.240Z,101557.78
2022-11-06T09:35:52.969Z,101560.60
2022-11-06T09:38:21.844Z,101556.10
2022-11-06T09:40:56.642Z,101554.80
2022-11-06T09:44:06.689Z,101556.60
2022-11-06T09:46:44.116Z,101560.77
2022-11-06T09:49:41.712Z,101559.44
2022-11-06T09:52:51.268Z,101560.06
2022-11-06T09:55:29.636Z,101560.50
2022-11-06T09:58:05.586Z,101563.12
2022-11-06T10:00:34.333Z,101558.22
2022-11-06T10:03:20.954Z,101557.64
2022-11-06T10:05:53.604Z,101556.55
2022-11-06T10:08:23.968Z,101555.84
2022-11-06T10:10:58.827Z,101557.14
2022-11-06T10:13:51.896Z,101549.88
2022-11-06T10:16:36.303Z,101551.34
2022-11-06T10:19:15.275Z,101552.94
2022-11-06T10:21:51.681Z,101548.48
2022-11-06T10:24:34.150Z,101551.93
2022-11-06T10:27:11.118Z,101546.53
2022-11-06T10:30:03.472Z,101541.24
2022-11-06T10:32:45.256Z,101535.69
2022-11-06T10:35:20.736Z,101537.43
2022-11-06T10:38:07.690Z,101537.77
2022-11-06T10:40:36.960Z,101531.52
2022-11-06T10:43:29.859Z,101531.12
2022-11-06T10:46:54.433Z,101526.64
2022-11-06T10:49:35.268Z,101527.00
2022-11-06T10:52:37.600Z,101528.87
2022-11-06T10:55:39.851Z,101524.88
2022-11-06T10:58:18.193Z,101520.73
2022-11-06T11:00:47.196Z,101520.53
2022-11-06T11:03:30.467Z,101521.69
2022-11-06T11:05:59.257Z,101518.89
2022-11-06T11:08:34.936Z,101516.56
2022-11-06T11:11:18.848Z,101518.14
2022-11-06T11:13:51.893Z,101518.20
2022-11-06T11:16:24.690Z,101520.02
2022-11-06T11:18:53.766Z,101515.57
2022-11-06T11:21:27.997Z,101512.51
2022-11-06T11:24:07.936Z,101517.27
2022-11-06T11:26:51.371Z,101520.33
2022-11-06T11:29:33.563Z,101519.89
2022-11-06T11:32:06.444Z,101522.13
2022-11-06T11:34:37.716Z,101522.50
2022-11-06T11:37:08.386Z,101518.79
2022-11-06T11:39:43.958Z,101518.40
2022-11-06T11:42:33.200Z,101515.09
2022-11-06T11:45:10.623Z,101512.33
2022-11-06T11:47:46.901Z,101507.57
2022-11-06T11:50:23.274Z,101508.61
2022-11-06T11:52:59.324Z,101505.20
2022-11-06T11:55:30.475Z,101503.77
2022-11-06T11:58:01.802Z,101502.73
2022-11-06T12:00:30.970Z,101502.02
2022-11-06T12:03:06.081Z,101499.08
2022-11-06T12:05:40.185Z,101496.59
2022-11-06T12:08:22.972Z,101502.88
2022-11-06T12:10:52.074Z,101505.05
2022-11-06T12:13:24.924Z,101506.98
2022-11-06T12:16:01.608Z,101508.73
2022-11-06T12:18:41.237Z,101505.14
2022-11-06T12:21:25.524Z,101507.73
2022-11-06T12:24:20.835Z,101511.31
2022-11-06T12:26:57.629Z,101519.77
2022-11-06T12:29:41.868Z,101522.58
2022-11-06T12:33:02.533Z,101514.97
2022-11-06T12:35:37.884Z,101518.05
2022-11-06T12:38:22.173Z,101514.66
2022-11-06T12:41:36.921Z,101515.69
2022-11-06T12:44:10.582Z,101520.71
2022-11-06T12:47:11.309Z,101520.70
2022-11-06T12:49:55.454Z,101521.75
2022-11-06T12:52:40.791Z,101522.66
2022-11-06T12:55:33.766Z,101523.91
2022-11-06T12:58:29.569Z,101527.36
2022-11-06T13:01:40.852Z,101527.11
2022-11-06T13:04:19.546Z,101528.73
2022-11-06T13:07:40.613Z,101529.65
2022-11-06T13:10:45.242Z,101531.87
2022-11-06T13:13:43.861Z,101533.13
2022-11-06T13:16:29.413Z,101530.92
2022-11-06T13:19:45.136Z,101530.66
2022-11-06T13:22:43.428Z,101537.05
2022-11-06T13:25:44.661Z,101537.03
2022-11-06T13:28:16.622Z,101536.92
2022-11-06T13:30:46.198Z,101535.08
2022-11-06T13:33:38.512Z,101534.16
2022-11-06T13:36:07.957Z,101536.01
2022-11-06T13:38:42.213Z,101534.30
2022-11-06T13:41:44.034Z,101536.42
2022-11-06T13:44:16.413Z,101533.71
2022-11-06T13:47:27.870Z,101533.95
2022-11-06T13:50:34.643Z,101537.02
2022-11-06T13:53:21.292Z,101539.45
2022-11-06T13:56:22.021Z,101537.86
2022-11-06T13:59:41.566Z,101539.91
2022-11-06T14:03:02.703Z,101539.09
2022-11-06T14:05:54.644Z,101540.23
2022-11-06T14:09:01.923Z,101537.63
2022-11-06T14:11:35.307Z,101539.52
2022-11-06T14:14:25.023Z,101539.84
2022-11-06T14:17:22.326Z,101542.52
2022-11-06T14:19:51.327Z,101545.99
2022-11-06T14:22:28.382Z,101547.20
2022-11-06T14:25:01.652Z,101546.41
2022-11-06T14:27:30.989Z,101545.91
2022-11-06T14:30:16.684Z,101544.82
2022-11-06T14:32:48.224Z,101542.77
2022-11-06T14:35:28.629Z,101548.77
2022-11-06T14:38:32.565Z,101549.88
2022-11-06T14:41:02.298Z,101548.15
2022-11-06T14:43:36.999Z,101544.56
2022-11-06T14:46:22.325Z,101543.52
2022-11-06T14:48:55.882Z,101545.56
2022-11-06T14:51:30.281Z,101545.93
2022-11-06T14:54:04.070Z,101547.94
2022-11-06T14:56:39.479Z,101546.00
2022-11-06T14:59:20.939Z,101543.30
2022-11-06T15:02:28.973Z,101545.92
2022-11-06T15:05:05.799Z,101542.66
2022-11-06T15:10:44.416Z,101546.80
2022-11-06T15:13:25.887Z,101547.17
2022-11-06T15:16:04.189Z,101550.58
2022-11-06T15:18:36.690Z,101550.45
2022-11-06T15:21:10.857Z,101554.02
2022-11-06T15:23:52.951Z,101556.36
2022-11-06T15:26:29.679Z,101561.23
2022-11-06T15:29:22.807Z,101562.99
2022-11-06T15:32:01.121Z,101566.00
2022-11-06T15:34:43.831Z,101565.67
2022-11-06T15:37:23.839Z,101564.86
2022-11-06T15:40:00.248Z,101563.25
2022-11-06T15:42:39.666Z,101559.02
2022-11-06T15:45:27.427Z,101563.44
2022-11-06T15:48:02.582Z,101563.88
2022-11-06T15:50:33.484Z,101561.82
2022-11-06T15:53:14.846Z,101558.77
2022-11-06T15:55:48.899Z,101565.52
2022-11-06T15:58:17.419Z,101567.36
2022-11-06T16:00:46.846Z,101565.99
2022-11-06T16:03:20.487Z,101572.48
2022-11-06T16:05:50.449Z,101573.36
2022-11-06T16:08:21.124Z,101575.11
2022-11-06T16:10:53.081Z,101581.30
2022-11-06T16:13:25.140Z,101588.49
2022-11-06T16:16:02.237Z,101591.58
2022-11-06T16:18:41.108Z,101591.52
2022-11-06T16:21:19.358Z,101592.39
2022-11-06T16:24:03.742Z,101595.92
2022-11-06T16:26:32.334Z,101600.20
2022-11-06T16:29:02.408Z,101599.27
2022-11-06T16:31:31.736Z,101592.94
2022-11-06T16:34:04.526Z,101587.40
2022-11-06T16:37:00.825Z,101587.20
2022-11-06T16:39:51.320Z,101588.83
2022-11-06T16:42:22.813Z,101588.88
2022-11-06T16:45:00.531Z,101591.27
2022-11-06T16:47:29.403Z,101593.73
2022-11-06T16:49:58.843Z,101596.05
2022-11-06T16:52:39.332Z,101596.38
2022-11-06T16:55:16.676Z,101598.22
2022-11-06T16:57:56.849Z,101599.14
2022-11-06T17:00:31.222Z,101603.11
2022-11-06T17:03:04.713Z,101602.46
2022-11-06T17:05:37.132Z,101609.94
2022-11-06T17:08:40.224Z,101606.89
2022-11-06T17:11:21.897Z,101603.18
2022-11-06T17:13:51.726Z,101611.96
2022-11-06T17:16:27.225Z,101610.09
2022-11-06T17:18:55.802Z,101608.02
2022-11-06T17:21:25.857Z,101609.95
2022-11-06T17:23:57.729Z,101612.14
2022-11-06T17:26:33.401Z,101613.34
2022-11-06T17:29:02.141Z,101612.85
2022-11-06T17:31:30.933Z,101612.16
2022-11-06T17:33:59.554Z,101609.67
2022-11-06T17:36:30.660Z,101612.59
2022-11-06T17:39:00.089Z,101611.61
2022-11-06T17:41:31.326Z,101610.75
2022-11-06T17:44:04.452Z,101610.64
2022-11-06T17:46:36.717Z,101608.80
2022-11-06T17:49:05.727Z,101613.91
2022-11-06T17:51:53.005Z,101613.80
2022-11-06T17:54:25.620Z,101613.15
2022-11-06T17:56:56.964Z,101612.58
2022-11-06T17:59:26.218Z,101610.58
2022-11-06T18:01:56.191Z,101614.56
2022-11-06T18:04:27.604Z,101616.25
2022-11-06T18:06:56.730Z,101617.02
2022-11-06T18:09:25.921Z,101618.96
2022-11-06T18:11:55.609Z,101618.52
2022-11-06T18:14:26.260Z,101619.92
2022-11-06T18:16:54.848Z,101616.92
2022-11-06T18:19:25.039Z,101616.87
2022-11-06T18:21:55.371Z,101614.63
2022-11-06T18:24:24.745Z,101616.00
2022-11-06T18:26:53.874Z,101617.94
2022-11-06T18:29:22.764Z,101619.09
2022-11-06T18:31:51.445Z,101615.79
2022-11-06T18:34:21.414Z,101619.69
2022-11-06T18:36:51.174Z,101623.39
2022-11-06T18:39:20.412Z,101624.68
2022-11-06T18:41:49.238Z,101626.81
2022-11-06T18:44:18.355Z,101622.41
2022-11-06T18:46:47.820Z,101623.72
2022-11-06T18:49:16.827Z,101624.33
2022-11-06T18:51:46.028Z,101624.88
2022-11-06T18:54:14.952Z,101617.58
2022-11-06T18:56:43.815Z,101615.04
2022-11-06T18:59:19.119Z,101613.52
2022-11-06T19:01:48.398Z,101616.58
2022-11-06T19:04:17.433Z,101620.00
2022-11-06T19:06:46.130Z,101617.32
2022-11-06T19:09:14.862Z,101615.49
2022-11-06T19:11:43.467Z,101618.11
2022-11-06T19:14:12.180Z,101620.66
2022-11-06T19:16:41.094Z,101620.23
2022-11-06T19:19:11.926Z,101619.79
2022-11-06T19:21:46.168Z,101618.91
2022-11-06T19:24:15.991Z,101617.18
2022-11-06T19:26:44.615Z,101615.58
2022-11-06T19:29:13.223Z,101617.54
2022-11-06T19:31:41.978Z,101618.17
2022-11-06T19:34:13.400Z,101619.42
2022-11-06T19:36:41.988Z,101622.79
2022-11-06T19:39:11.677Z,101621.34
2022-11-06T19:41:40.366Z,101619.55
2022-11-06T19:44:10.599Z,101622.46
2022-11-06T19:46:39.563Z,101619.71
2022-11-06T19:49:10.181Z,101614.01
2022-11-06T19:51:41.157Z,101615.41
2022-11-06T19:54:11.288Z,101616.91
2022-11-06T19:57:27.578Z,101620.98
2022-11-06T19:59:28.919Z,101619.92
2022-11-06T20:01:58.016Z,101621.05
2022-11-06T20:04:27.060Z,101621.52
2022-11-06T20:06:55.680Z,101618.58
2022-11-06T20:09:24.348Z,101613.52
2022-11-06T20:11:52.997Z,101616.17
2022-11-06T20:14:24.279Z,101620.67
2022-11-06T20:16:53.322Z,101620.66
2022-11-06T20:19:22.003Z,101619.73
2022-11-06T20:21:50.655Z,101622.83
2022-11-06T20:24:19.262Z,101625.49
2022-11-06T20:26:47.843Z,101625.98
2022-11-06T20:29:16.728Z,101625.61
2022-11-06T20:31:45.414Z,101624.56
2022-11-06T20:34:15.888Z,101622.96
2022-11-06T20:36:44.529Z,101624.84
2022-11-06T20:39:15.451Z,101625.86
2022-11-06T20:41:44.214Z,101625.81
2022-11-06T20:44:13.233Z,101622.89
2022-11-06T20:46:41.799Z,101623.30
2022-11-06T20:49:10.501Z,101621.61
2022-11-06T20:52:11.637Z,101625.83
2022-11-06T20:54:30.759Z,101628.29
2022-11-06T20:57:00.245Z,101623.91
2022-11-06T20:59:31.201Z,101622.62
2022-11-06T21:02:18.393Z,101623.70
2022-11-06T21:04:49.982Z,101622.47
2022-11-06T21:07:18.570Z,101621.58
2022-11-06T21:09:47.164Z,101622.39
2022-11-06T21:12:15.792Z,101622.19
2022-11-06T21:14:44.629Z,101623.26
2022-11-06T21:17:15.140Z,101624.63
2022-11-06T21:19:44.445Z,101625.27
2022-11-06T21:22:14.552Z,101626.58
2022-11-06T21:24:44.027Z,101625.81
2022-11-06T21:27:12.782Z,101624.59
2022-11-06T21:29:41.364Z,101621.45
2022-11-06T21:32:09.969Z,101619.22
2022-11-06T21:34:38.689Z,101620.73
2022-11-06T21:37:07.251Z,101624.46
2022-11-06T21:39:36.722Z,101623.67
2022-11-06T21:42:06.146Z,101624.33
2022-11-06T21:44:34.787Z,101626.48
2022-11-06T21:47:03.384Z,101625.16
2022-11-06T21:49:34.658Z,101624.13
2022-11-06T21:52:28.968Z,101625.21
2022-11-06T21:55:16.532Z,101630.36
2022-11-06T21:57:45.164Z,101628.17
2022-11-06T22:00:14.699Z,101633.00
2022-11-06T22:02:43.826Z,101631.38
2022-11-06T22:05:12.617Z,101629.41
2022-11-06T22:07:41.285Z,101628.13
2022-11-06T22:10:10.178Z,101630.30
2022-11-06T22:12:38.794Z,101630.03
2022-11-06T22:15:08.420Z,101629.91
2022-11-06T22:17:37.116Z,101630.45
2022-11-06T22:20:06.614Z,101630.95
2022-11-06T22:22:35.189Z,101633.25
2022-11-06T22:25:05.254Z,101635.93
2022-11-06T22:27:38.158Z,101633.61
2022-11-06T22:30:10.317Z,101631.85
2022-11-06T22:32:38.929Z,101633.71
2022-11-06T22:35:07.936Z,101634.90
2022-11-06T22:37:36.585Z,101636.45
2022-11-06T22:40:08.285Z,101638.02
2022-11-06T22:42:36.893Z,101631.77
2022-11-06T22:45:06.310Z,101636.54
2022-11-06T22:47:35.059Z,101635.02
2022-11-06T22:50:03.866Z,101635.16
2022-11-06T22:52:32.470Z,101639.92
2022-11-06T22:55:01.075Z,101641.95
2022-11-06T22:57:29.694Z,101639.36
2022-11-06T22:59:58.349Z,101643.34
2022-11-06T23:02:27.135Z,101643.69
2022-11-06T23:04:55.772Z,101641.98
2022-11-06T23:07:24.388Z,101637.38
2022-11-06T23:09:52.965Z,101638.06
2022-11-06T23:12:21.571Z,101639.22
2022-11-06T23:14:50.221Z,101637.02
2022-11-06T23:17:20.282Z,101639.80
2022-11-06T23:19:48.902Z,101643.38
2022-11-06T23:22:36.218Z,101643.70
2022-11-06T23:25:07.234Z,101648.30
2022-11-06T23:27:37.236Z,101649.54
2022-11-06T23:30:07.380Z,101651.41
2022-11-06T23:32:37.643Z,101654.73
2022-11-06T23:35:13.260Z,101651.45
2022-11-06T23:37:43.631Z,101653.52
2022-11-06T23:40:12.699Z,101655.11
2022-11-06T23:42:43.388Z,101655.70
2022-11-06T23:45:30.772Z,101657.23
2022-11-06T23:48:02.132Z,101656.55
2022-11-06T23:50:33.227Z,101654.90
2022-11-06T23:53:01.914Z,101654.08
2022-11-06T23:55:30.464Z,101652.54
2022-11-06T23:57:59.811Z,101651.66
